createdAt,value
2022-10-09T00:02:31.422Z,2.13
2022-10-09T00:06:03.845Z,2.15
2022-10-09T00:09:35.597Z,2.33
2022-10-09T00:13:07.526Z,2.37
2022-10-09T00:16:39.198Z,1.80
2022-10-09T00:20:11.617Z,1.73
2022-10-09T00:23:43.220Z,2.67
2022-10-09T00:27:15.011Z,1.90
2022-10-09T00:30:46.656Z,1.90
2022-10-09T00:34:18.448Z,2.22
2022-10-09T00:37:50.054Z,2.30
2022-10-09T00:41:27.764Z,1.70
2022-10-09T00:45:01.795Z,1.42
2022-10-09T00:48:34.036Z,2.23
2022-10-09T00:52:07.658Z,1.73
2022-10-09T00:55:40.413Z,1.33
2022-10-09T00:59:13.403Z,2.13
2022-10-09T01:02:45.385Z,1.60
2022-10-09T01:06:38.797Z,2.05
2022-10-09T01:10:30.632Z,1.88
2022-10-09T01:14:19.798Z,2.10
2022-10-09T01:18:02.024Z,1.63
2022-10-09T01:21:56.521Z,1.90
2022-10-09T01:25:40.249Z,2.58
2022-10-09T01:29:14.089Z,1.37
2022-10-09T01:32:51.093Z,1.93
2022-10-09T01:36:25.058Z,1.60
2022-10-09T01:39:58.255Z,1.55
2022-10-09T01:43:30.073Z,2.00
2022-10-09T01:47:02.448Z,1.77
2022-10-09T01:50:40.470Z,1.48
2022-10-09T01:54:16.764Z,1.83
2022-10-09T01:57:52.256Z,2.07
2022-10-09T02:01:33.755Z,1.80
2022-10-09T02:05:07.653Z,1.67
2022-10-09T02:08:41.057Z,1.65
2022-10-09T02:12:15.121Z,1.67
2022-10-09T02:15:57.520Z,1.60
2022-10-09T02:19:41.705Z,1.90
2022-10-09T02:23:15.647Z,1.38
2022-10-09T02:26:47.728Z,1.03
2022-10-09T02:30:20.847Z,1.30
2022-10-09T02:33:57.371Z,1.50
2022-10-09T02:37:29.251Z,2.08
2022-10-09T02:41:01.565Z,1.60
2022-10-09T02:44:33.739Z,1.60
2022-10-09T02:48:05.380Z,1.42
2022-10-09T02:51:37.237Z,1.20
2022-10-09T02:55:09.333Z,1.60
2022-10-09T02:58:41.314Z,1.25
2022-10-09T03:02:13.025Z,1.48
2022-10-09T03:05:45.726Z,1.17
2022-10-09T03:09:17.373Z,1.55
2022-10-09T03:12:49.570Z,1.70
2022-10-09T03:16:23.894Z,1.53
2022-10-09T03:19:55.807Z,1.48
2022-10-09T03:23:27.584Z,1.13
2022-10-09T03:26:59.407Z,1.60
2022-10-09T03:30:31.175Z,1.57
2022-10-09T03:34:03.294Z,1.30
2022-10-09T03:37:34.969Z,1.70
2022-10-09T03:41:07.350Z,1.37
2022-10-09T03:44:39.311Z,1.57
2022-10-09T03:48:12.478Z,1.35
2022-10-09T03:51:44.141Z,1.30
2022-10-09T03:55:16.615Z,1.10
2022-10-09T03:58:48.200Z,1.65
2022-10-09T04:02:20.131Z,2.20
2022-10-09T04:05:51.765Z,3.00
2022-10-09T04:09:23.869Z,2.53
2022-10-09T04:12:55.648Z,2.42
2022-10-09T04:16:27.517Z,1.38
2022-10-09T04:19:59.158Z,1.27
2022-10-09T04:23:31.286Z,1.27
2022-10-09T04:27:03.078Z,1.00
2022-10-09T04:30:35.032Z,1.70
2022-10-09T04:34:06.665Z,1.47
2022-10-09T04:37:38.540Z,1.40
2022-10-09T04:41:10.488Z,1.08
2022-10-09T04:44:42.327Z,1.37
2022-10-09T04:48:14.020Z,1.23
2022-10-09T04:51:45.891Z,1.80
2022-10-09T04:55:17.513Z,1.27
2022-10-09T04:58:50.379Z,1.00
2022-10-09T05:02:21.994Z,1.17
2022-10-09T05:05:53.844Z,1.40
2022-10-09T05:09:25.711Z,1.37
2022-10-09T05:12:58.406Z,1.10
2022-10-09T05:16:31.728Z,1.30
2022-10-09T05:20:03.918Z,1.33
2022-10-09T05:23:35.956Z,1.15
2022-10-09T05:27:07.856Z,1.13
2022-10-09T05:30:41.897Z,1.20
2022-10-09T05:34:13.728Z,1.33
2022-10-09T05:37:45.742Z,1.10
2022-10-09T05:41:19.376Z,1.13
2022-10-09T05:44:50.973Z,1.73
2022-10-09T05:48:23.088Z,1.15
2022-10-09T05:51:56.000Z,1.30
2022-10-09T05:55:28.380Z,1.87
2022-10-09T05:59:02.729Z,1.23
2022-10-09T06:02:34.654Z,1.50
2022-10-09T06:06:08.280Z,1.23
2022-10-09T06:09:40.101Z,1.10
2022-10-09T06:13:11.649Z,1.40
2022-10-09T06:16:46.039Z,1.63
2022-10-09T06:20:17.849Z,1.47
2022-10-09T06:23:51.789Z,1.25
2022-10-09T06:27:23.368Z,0.95
2022-10-09T06:31:02.910Z,1.40
2022-10-09T06:34:34.574Z,1.47
2022-10-09T06:38:06.589Z,1.70
2022-10-09T06:41:38.290Z,1.42
2022-10-09T06:45:10.310Z,1.03
2022-10-09T06:48:41.990Z,1.63
2022-10-09T06:52:13.900Z,1.60
2022-10-09T06:55:56.031Z,1.53
2022-10-09T06:59:27.862Z,1.25
2022-10-09T07:02:59.530Z,1.40
2022-10-09T07:06:32.538Z,1.67
2022-10-09T07:10:04.520Z,2.13
2022-10-09T07:13:37.148Z,1.83
2022-10-09T07:17:09.150Z,1.52
2022-10-09T07:20:41.345Z,1.70
2022-10-09T07:24:13.592Z,1.80
2022-10-09T07:27:45.458Z,2.33
2022-10-09T07:31:17.772Z,2.13
2022-10-09T07:34:49.684Z,1.90
2022-10-09T07:38:22.411Z,2.63
2022-10-09T07:41:54.224Z,1.90
2022-10-09T07:45:25.836Z,1.88
2022-10-09T07:48:58.828Z,1.80
2022-10-09T07:52:30.410Z,1.80
2022-10-09T07:56:02.289Z,1.92
2022-10-09T07:59:33.887Z,1.87
2022-10-09T08:03:05.769Z,2.20
2022-10-09T08:06:37.858Z,2.30
2022-10-09T08:10:10.205Z,2.28
2022-10-09T08:13:43.202Z,1.83
2022-10-09T08:17:16.626Z,2.10
2022-10-09T08:20:59.710Z,2.28
2022-10-09T08:24:32.101Z,1.70
2022-10-09T08:28:05.058Z,2.13
2022-10-09T08:31:37.105Z,1.90
2022-10-09T08:35:08.993Z,1.70
2022-10-09T08:38:48.763Z,2.10
2022-10-09T08:42:32.250Z,2.20
2022-10-09T08:46:11.127Z,2.30
2022-10-09T08:50:08.981Z,2.00
2022-10-09T08:53:58.720Z,1.90
2022-10-09T08:57:33.210Z,1.63
2022-10-09T09:01:12.578Z,2.37
2022-10-09T09:05:19.395Z,1.63
2022-10-09T09:09:22.260Z,2.15
2022-10-09T09:13:00.831Z,2.00
2022-10-09T09:16:48.461Z,1.33
2022-10-09T09:20:29.268Z,1.40
2022-10-09T09:24:05.301Z,1.02
2022-10-09T09:27:37.756Z,1.10
2022-10-09T09:31:24.233Z,1.20
2022-10-09T09:35:19.558Z,1.08
2022-10-09T09:39:35.399Z,1.00
2022-10-09T09:42:44.192Z,0.98
2022-10-09T09:46:19.472Z,0.80
2022-10-09T09:49:59.353Z,1.00
2022-10-09T09:53:39.713Z,0.75
2022-10-09T09:57:16.986Z,0.77
2022-10-09T10:01:01.402Z,0.83
2022-10-09T10:04:33.077Z,0.80
2022-10-09T10:08:20.617Z,0.80
2022-10-09T10:11:58.081Z,0.70
2022-10-09T10:15:34.008Z,0.80
2022-10-09T10:19:06.719Z,0.63
2022-10-09T10:22:38.740Z,0.65
2022-10-09T10:26:28.907Z,0.60
2022-10-09T10:30:04.624Z,0.60
2022-10-09T10:33:37.427Z,0.40
2022-10-09T10:37:15.395Z,0.50
2022-10-09T10:40:56.729Z,0.45
2022-10-09T10:45:04.143Z,0.40
2022-10-09T10:48:43.236Z,0.60
2022-10-09T10:52:41.053Z,0.60
2022-10-09T10:56:28.075Z,0.60
2022-10-09T11:00:11.527Z,1.92
2022-10-09T11:03:58.808Z,0.60
2022-10-09T11:07:42.714Z,1.03
2022-10-09T11:11:23.573Z,0.60
2022-10-09T11:15:19.376Z,0.55
2022-10-09T11:19:04.977Z,0.82
2022-10-09T11:22:52.719Z,0.90
2022-10-09T11:26:36.552Z,0.77
2022-10-09T11:30:14.465Z,0.73
2022-10-09T11:33:52.045Z,0.93
2022-10-09T11:37:30.082Z,0.60
2022-10-09T11:41:06.417Z,1.00
2022-10-09T11:45:04.926Z,0.83
2022-10-09T11:48:45.433Z,0.93
2022-10-09T11:52:27.594Z,0.85
2022-10-09T11:56:08.927Z,1.25
2022-10-09T11:59:42.606Z,0.70
2022-10-09T12:03:34.248Z,0.67
2022-10-09T12:07:11.242Z,0.90
2022-10-09T12:10:53.093Z,0.98
2022-10-09T12:14:28.246Z,0.85
2022-10-09T12:17:59.920Z,0.50
2022-10-09T12:21:40.471Z,0.63
2022-10-09T12:25:29.462Z,0.80
2022-10-09T12:29:02.736Z,0.88
2022-10-09T12:32:41.678Z,0.60
2022-10-09T12:36:24.405Z,0.80
2022-10-09T12:40:13.703Z,0.50
2022-10-09T12:43:46.668Z,0.70
2022-10-09T12:47:22.856Z,0.55
2022-10-09T12:50:55.841Z,0.50
2022-10-09T12:54:30.495Z,0.88
2022-10-09T12:58:06.921Z,1.20
2022-10-09T13:01:40.349Z,1.58
2022-10-09T13:05:12.292Z,0.80
2022-10-09T13:08:45.117Z,0.80
2022-10-09T13:12:23.034Z,0.50
2022-10-09T13:16:00.692Z,0.77
2022-10-09T13:19:35.411Z,1.00
2022-10-09T13:23:07.177Z,0.87
2022-10-09T13:26:42.635Z,0.85
2022-10-09T13:30:14.233Z,1.17
2022-10-09T13:33:46.890Z,1.15
2022-10-09T13:37:20.273Z,1.13
2022-10-09T13:40:52.246Z,1.13
2022-10-09T13:44:24.277Z,1.60
2022-10-09T13:47:56.709Z,2.53
2022-10-09T13:51:31.908Z,3.67
2022-10-09T13:55:05.298Z,2.83
2022-10-09T13:58:36.970Z,0.77
2022-10-09T14:02:10.909Z,1.25
2022-10-09T14:05:43.692Z,1.02
2022-10-09T14:09:15.589Z,1.08
2022-10-09T14:12:47.959Z,1.02
2022-10-09T14:16:19.991Z,1.67
2022-10-09T14:19:52.709Z,1.00
2022-10-09T14:23:24.813Z,1.33
2022-10-09T14:26:56.447Z,1.17
2022-10-09T14:30:28.374Z,0.90
2022-10-09T14:34:00.127Z,1.20
2022-10-09T14:37:47.152Z,0.60
2022-10-09T14:41:19.912Z,0.80
2022-10-09T14:44:53.498Z,1.35
2022-10-09T14:48:25.074Z,1.37
2022-10-09T14:51:58.581Z,1.00
2022-10-09T14:55:30.224Z,1.00
2022-10-09T14:59:02.631Z,1.00
2022-10-09T15:02:34.359Z,1.80
2022-10-09T15:06:09.103Z,0.73
2022-10-09T15:09:40.750Z,0.70
2022-10-09T15:13:12.553Z,1.08
2022-10-09T15:16:44.154Z,1.00
2022-10-09T15:20:16.335Z,1.17
2022-10-09T15:23:50.648Z,0.60
2022-10-09T15:27:22.486Z,0.93
2022-10-09T15:30:57.567Z,1.27
2022-10-09T15:34:30.802Z,1.30
2022-10-09T15:38:02.397Z,0.83
2022-10-09T15:41:37.328Z,1.00
2022-10-09T15:45:09.175Z,1.30
2022-10-09T15:48:42.338Z,1.13
2022-10-09T15:52:13.937Z,1.67
2022-10-09T15:55:48.495Z,0.77
2022-10-09T15:59:20.674Z,1.17
2022-10-09T16:02:52.813Z,1.15
2022-10-09T16:06:24.697Z,0.98
2022-10-09T16:09:57.160Z,1.50
2022-10-09T16:13:28.795Z,1.40
2022-10-09T16:17:00.654Z,8.05
2022-10-09T16:20:37.478Z,34.92
2022-10-09T16:24:09.361Z,17.20
2022-10-09T16:27:40.937Z,5.50
2022-10-09T16:31:24.150Z,8.75
2022-10-09T16:34:56.062Z,26.83
2022-10-09T16:38:27.855Z,24.77
2022-10-09T16:42:03.689Z,12.40
2022-10-09T16:45:35.608Z,9.50
2022-10-09T16:49:07.212Z,8.68
2022-10-09T16:52:39.028Z,37.47
2022-10-09T16:56:13.301Z,25.83
2022-10-09T16:59:46.131Z,19.05
2022-10-09T17:03:17.727Z,9.68
2022-10-09T17:06:49.563Z,12.23
2022-10-09T17:10:21.296Z,8.83
2022-10-09T17:13:56.691Z,11.27
2022-10-09T17:17:28.405Z,10.65
2022-10-09T17:21:03.193Z,26.70
2022-10-09T17:24:34.843Z,25.65
2022-10-09T17:28:08.161Z,25.17
2022-10-09T17:31:40.445Z,18.63
2022-10-09T17:35:12.256Z,8.00
2022-10-09T17:38:44.486Z,5.97
2022-10-09T17:42:16.541Z,8.23
2022-10-09T17:45:48.868Z,4.40
2022-10-09T17:49:20.696Z,5.50
2022-10-09T17:52:52.511Z,5.90
2022-10-09T17:56:25.153Z,5.10
2022-10-09T17:59:57.084Z,5.00
2022-10-09T18:03:29.317Z,4.60
2022-10-09T18:07:00.905Z,4.75
2022-10-09T18:10:32.824Z,5.70
2022-10-09T18:14:04.519Z,5.50
2022-10-09T18:17:36.398Z,5.43
2022-10-09T18:21:12.051Z,5.70
2022-10-09T18:24:43.935Z,4.70
2022-10-09T18:28:15.670Z,4.07
2022-10-09T18:31:47.551Z,4.17
2022-10-09T18:35:19.265Z,4.60
2022-10-09T18:38:55.675Z,4.43
2022-10-09T18:42:27.342Z,4.67
2022-10-09T18:46:00.774Z,5.03
2022-10-09T18:49:32.699Z,5.20
2022-10-09T18:53:04.764Z,6.30
2022-10-09T18:56:37.215Z,6.30
2022-10-09T19:00:10.099Z,5.30
2022-10-09T19:03:45.946Z,5.63
2022-10-09T19:07:21.349Z,5.30
2022-10-09T19:10:53.708Z,5.17
2022-10-09T19:14:25.608Z,5.55
2022-10-09T19:17:57.360Z,6.25
2022-10-09T19:21:29.357Z,6.37
2022-10-09T19:25:02.139Z,7.13
2022-10-09T19:28:37.853Z,7.10
2022-10-09T19:32:09.563Z,8.48
2022-10-09T19:35:46.831Z,8.80
2022-10-09T19:39:19.475Z,8.57
2022-10-09T19:42:51.276Z,8.43
2022-10-09T19:46:22.976Z,7.15
2022-10-09T19:49:54.967Z,8.43
2022-10-09T19:53:26.667Z,7.47
2022-10-09T19:56:58.668Z,8.75
2022-10-09T20:00:31.023Z,6.50
2022-10-09T20:04:07.640Z,7.03
2022-10-09T20:07:39.251Z,6.60
2022-10-09T20:11:13.071Z,5.68
2022-10-09T20:14:45.420Z,6.32
2022-10-09T20:18:17.197Z,6.77
2022-10-09T20:21:49.039Z,6.93
2022-10-09T20:25:20.955Z,6.88
2022-10-09T20:28:53.985Z,6.77
2022-10-09T20:32:25.969Z,5.53
2022-10-09T20:35:57.883Z,6.70
2022-10-09T20:39:31.121Z,7.28
2022-10-09T20:43:03.177Z,5.80
2022-10-09T20:46:37.266Z,5.75
2022-10-09T20:50:09.526Z,5.90
2022-10-09T20:53:41.602Z,6.25
2022-10-09T20:57:13.387Z,6.03
2022-10-09T21:00:45.206Z,5.60
2022-10-09T21:04:16.890Z,5.45
2022-10-09T21:07:48.986Z,5.80
2022-10-09T21:11:21.002Z,5.03
2022-10-09T21:14:53.392Z,5.63
2022-10-09T21:18:25.033Z,5.53
2022-10-09T21:21:56.855Z,5.33
2022-10-09T21:25:28.460Z,5.20
2022-10-09T21:29:00.388Z,4.78
2022-10-09T21:32:32.018Z,4.68
2022-10-09T21:36:10.506Z,4.37
2022-10-09T21:39:42.280Z,5.22
2022-10-09T21:43:14.120Z,5.22
2022-10-09T21:46:45.928Z,6.53
2022-10-09T21:50:18.270Z,6.37
2022-10-09T21:53:50.356Z,7.03
2022-10-09T21:57:22.210Z,8.52
2022-10-09T22:01:01.273Z,9.00
2022-10-09T22:04:33.354Z,9.63
2022-10-09T22:08:04.971Z,10.20
2022-10-09T22:11:36.793Z,9.07
2022-10-09T22:15:08.791Z,9.33
2022-10-09T22:18:42.458Z,9.13
2022-10-09T22:22:14.063Z,9.50
2022-10-09T22:25:57.151Z,10.02
2022-10-09T22:29:28.746Z,9.70
2022-10-09T22:33:00.801Z,9.38
2022-10-09T22:36:33.702Z,8.43
2022-10-09T22:40:06.193Z,8.48
2022-10-09T22:43:39.676Z,7.50
2022-10-09T22:47:11.534Z,8.15
2022-10-09T22:50:43.143Z,7.72
2022-10-09T22:54:15.004Z,7.77
2022-10-09T22:57:46.575Z,7.57
2022-10-09T23:01:25.075Z,7.97
2022-10-09T23:04:56.749Z,8.00
2022-10-09T23:08:28.581Z,8.17
2022-10-09T23:12:00.283Z,8.02
2022-10-09T23:15:36.789Z,8.85
2022-10-09T23:19:09.387Z,8.18
2022-10-09T23:22:42.784Z,8.23
2022-10-09T23:26:20.132Z,7.80
2022-10-09T23:29:52.028Z,7.00
2022-10-09T23:33:23.624Z,7.47
2022-10-09T23:36:55.476Z,7.55
2022-10-09T23:40:27.076Z,7.78
2022-10-09T23:43:58.992Z,7.70
2022-10-09T23:47:30.668Z,6.93
2022-10-09T23:51:02.823Z,6.45
2022-10-09T23:54:34.445Z,7.63
2022-10-09T23:58:06.263Z,6.20
